sensor_id;sensor_type;location;lat;lon;timestamp;pressure;altitude;pressure_sealevel;temperature;humidity
66176;BME280;52977;44.816;20.538;2022-07-06T00:01:40;99821.63;;;23.02;100.00
66176;BME280;52977;44.816;20.538;2022-07-06T00:04:06;99817.19;;;23.26;100.00
66176;BME280;52977;44.816;20.538;2022-07-06T00:06:32;99812.81;;;23.25;100.00
66176;BME280;52977;44.816;20.538;2022-07-06T00:08:58;99807.28;;;23.14;100.00
66176;BME280;52977;44.816;20.538;2022-07-06T00:11:24;99800.84;;;23.25;100.00
66176;BME280;52977;44.816;20.538;2022-07-06T00:13:50;99810.53;;;22.95;100.00
66176;BME280;52977;44.816;20.538;2022-07-06T00:16:16;99800.94;;;23.07;100.00
66176;BME280;52977;44.816;20.538;2022-07-06T00:18:42;99809.66;;;23.19;100.00
66176;BME280;52977;44.816;20.538;2022-07-06T00:21:08;99810.06;;;23.07;100.00
66176;BME280;52977;44.816;20.538;2022-07-06T00:23:33;99806.91;;;23.12;100.00
66176;BME280;52977;44.816;20.538;2022-07-06T00:25:59;99818.38;;;23.21;100.00
66176;BME280;52977;44.816;20.538;2022-07-06T00:28:26;99813.22;;;23.24;100.00
66176;BME280;52977;44.816;20.538;2022-07-06T00:30:52;99818.28;;;23.40;100.00
66176;BME280;52977;44.816;20.538;2022-07-06T00:33:18;99804.03;;;23.27;100.00
66176;BME280;52977;44.816;20.538;2022-07-06T00:35:44;99816.38;;;23.29;100.00
66176;BME280;52977;44.816;20.538;2022-07-06T00:38:09;99808.06;;;23.11;100.00
66176;BME280;52977;44.816;20.538;2022-07-06T00:40:35;99815.59;;;23.25;100.00
66176;BME280;52977;44.816;20.538;2022-07-06T00:43:01;99792.59;;;22.99;100.00
66176;BME280;52977;44.816;20.538;2022-07-06T00:45:26;99808.88;;;23.15;100.00
66176;BME280;52977;44.816;20.538;2022-07-06T00:47:52;99795.69;;;23.23;100.00
66176;BME280;52977;44.816;20.538;2022-07-06T00:50:19;99796.09;;;23.25;100.00
66176;BME280;52977;44.816;20.538;2022-07-06T00:52:56;99800.84;;;23.25;100.00
66176;BME280;52977;44.816;20.538;2022-07-06T00:55:27;99798.06;;;23.25;100.00
66176;BME280;52977;44.816;20.538;2022-07-06T00:57:53;99797.34;;;23.06;100.00
66176;BME280;52977;44.816;20.538;2022-07-06T01:00:22;99804.91;;;23.02;100.00
66176;BME280;52977;44.816;20.538;2022-07-06T01:02:48;99797.34;;;23.10;100.00
66176;BME280;52977;44.816;20.538;2022-07-06T01:05:15;99796.69;;;22.77;100.00
66176;BME280;52977;44.816;20.538;2022-07-06T01:07:42;99800.22;;;22.88;100.00
66176;BME280;52977;44.816;20.538;2022-07-06T01:10:10;99793.06;;;22.87;100.00
66176;BME280;52977;44.816;20.538;2022-07-06T01:12:38;99788.63;;;23.00;100.00
66176;BME280;52977;44.816;20.538;2022-07-06T01:15:07;99797.78;;;22.97;100.00
66176;BME280;52977;44.816;20.538;2022-07-06T01:17:33;99790.56;;;23.11;100.00
66176;BME280;52977;44.816;20.538;2022-07-06T01:20:20;99789.81;;;22.99;100.00
66176;BME280;52977;44.816;20.538;2022-07-06T01:22:48;99789.81;;;22.99;100.00
66176;BME280;52977;44.816;20.538;2022-07-06T01:25:14;99792.25;;;22.90;100.00
66176;BME280;52977;44.816;20.538;2022-07-06T01:27:40;99789.03;;;22.95;100.00
66176;BME280;52977;44.816;20.538;2022-07-06T01:30:09;99779.16;;;22.83;100.00
66176;BME280;52977;44.816;20.538;2022-07-06T01:32:35;99730.78;;;22.52;100.00
66176;BME280;52977;44.816;20.538;2022-07-06T01:35:02;99785.59;;;22.73;100.00
66176;BME280;52977;44.816;20.538;2022-07-06T01:37:29;99768.91;;;22.59;100.00
66176;BME280;52977;44.816;20.538;2022-07-06T01:39:58;99772.47;;;22.66;100.00
66176;BME280;52977;44.816;20.538;2022-07-06T01:42:24;99786.47;;;22.34;100.00
66176;BME280;52977;44.816;20.538;2022-07-06T01:44:50;99781.22;;;22.58;100.00
66176;BME280;52977;44.816;20.538;2022-07-06T01:47:16;99776.06;;;22.56;100.00
66176;BME280;52977;44.816;20.538;2022-07-06T01:49:41;99774.88;;;22.57;100.00
66176;BME280;52977;44.816;20.538;2022-07-06T01:52:07;99780.81;;;22.63;100.00
66176;BME280;52977;44.816;20.538;2022-07-06T01:54:33;99780.84;;;22.59;100.00
66176;BME280;52977;44.816;20.538;2022-07-06T01:56:58;99784.81;;;22.65;100.00
66176;BME280;52977;44.816;20.538;2022-07-06T01:59:25;99780.38;;;22.72;100.00
66176;BME280;52977;44.816;20.538;2022-07-06T02:01:51;99787.63;;;22.44;100.00
66176;BME280;52977;44.816;20.538;2022-07-06T02:04:17;99790.06;;;22.34;100.00
66176;BME280;52977;44.816;20.538;2022-07-06T02:06:43;99787.25;;;22.38;100.00
66176;BME280;52977;44.816;20.538;2022-07-06T02:09:08;99788.44;;;22.44;100.00
66176;BME280;52977;44.816;20.538;2022-07-06T02:11:34;99773.72;;;22.47;100.00
66176;BME280;52977;44.816;20.538;2022-07-06T02:13:59;99791.25;;;22.33;100.00
66176;BME280;52977;44.816;20.538;2022-07-06T02:16:25;99788.84;;;22.39;100.00
66176;BME280;52977;44.816;20.538;2022-07-06T02:18:51;99791.63;;;22.21;100.00
66176;BME280;52977;44.816;20.538;2022-07-06T02:21:17;99778.13;;;22.34;100.00
66176;BME280;52977;44.816;20.538;2022-07-06T02:23:42;99775.34;;;22.41;100.00
66176;BME280;52977;44.816;20.538;2022-07-06T02:26:08;99770.94;;;22.44;100.00
66176;BME280;52977;44.816;20.538;2022-07-06T02:28:33;99792.00;;;22.48;100.00
66176;BME280;52977;44.816;20.538;2022-07-06T02:30:59;99794.75;;;22.52;100.00
66176;BME280;52977;44.816;20.538;2022-07-06T02:33:27;99772.94;;;22.29;100.00
66176;BME280;52977;44.816;20.538;2022-07-06T02:35:53;99788.03;;;22.31;100.00
66176;BME280;52977;44.816;20.538;2022-07-06T02:38:20;99783.69;;;22.38;100.00
66176;BME280;52977;44.816;20.538;2022-07-06T02:40:46;99790.03;;;22.45;100.00
66176;BME280;52977;44.816;20.538;2022-07-06T02:43:11;99798.38;;;22.42;100.00
66176;BME280;52977;44.816;20.538;2022-07-06T02:45:39;99800.34;;;22.30;100.00
66176;BME280;52977;44.816;20.538;2022-07-06T02:48:05;99801.56;;;22.26;100.00
66176;BME280;52977;44.816;20.538;2022-07-06T02:50:32;99796.38;;;22.28;100.00
66176;BME280;52977;44.816;20.538;2022-07-06T02:52:58;99782.88;;;22.23;100.00
66176;BME280;52977;44.816;20.538;2022-07-06T02:55:27;99796.00;;;22.40;100.00
66176;BME280;52977;44.816;20.538;2022-07-06T02:57:53;99792.41;;;22.43;100.00
66176;BME280;52977;44.816;20.538;2022-07-06T03:00:20;99776.56;;;22.15;100.00
66176;BME280;52977;44.816;20.538;2022-07-06T03:02:46;99798.00;;;22.40;100.00
66176;BME280;52977;44.816;20.538;2022-07-06T03:05:12;99797.19;;;22.14;100.00
66176;BME280;52977;44.816;20.538;2022-07-06T03:07:38;99798.78;;;22.04;100.00
66176;BME280;52977;44.816;20.538;2022-07-06T03:10:05;99805.56;;;21.99;100.00
66176;BME280;52977;44.816;20.538;2022-07-06T03:12:31;99798.78;;;22.11;100.00
66176;BME280;52977;44.816;20.538;2022-07-06T03:14:58;99799.59;;;22.12;100.00
66176;BME280;52977;44.816;20.538;2022-07-06T03:17:26;99798.38;;;22.13;100.00
66176;BME280;52977;44.816;20.538;2022-07-06T03:19:52;99794.81;;;22.23;100.00
66176;BME280;52977;44.816;20.538;2022-07-06T03:22:18;99788.06;;;22.17;100.00
66176;BME280;52977;44.816;20.538;2022-07-06T03:24:44;99767.84;;;21.91;100.00
66176;BME280;52977;44.816;20.538;2022-07-06T03:27:10;99788.88;;;21.96;100.00
66176;BME280;52977;44.816;20.538;2022-07-06T03:29:36;99788.06;;;22.13;100.00
66176;BME280;52977;44.816;20.538;2022-07-06T03:32:03;99776.97;;;21.95;100.00
66176;BME280;52977;44.816;20.538;2022-07-06T03:34:30;99786.09;;;22.03;100.00
66176;BME280;52977;44.816;20.538;2022-07-06T03:36:56;99798.38;;;22.13;100.00
66176;BME280;52977;44.816;20.538;2022-07-06T03:39:23;99777.75;;;22.07;100.00
66176;BME280;52977;44.816;20.538;2022-07-06T03:41:49;99782.91;;;22.08;100.00
66176;BME280;52977;44.816;20.538;2022-07-06T03:44:17;99788.09;;;22.06;100.00
66176;BME280;52977;44.816;20.538;2022-07-06T03:46:43;99774.97;;;21.71;100.00
66176;BME280;52977;44.816;20.538;2022-07-06T03:49:08;99792.47;;;21.78;100.00
66176;BME280;52977;44.816;20.538;2022-07-06T03:51:34;99780.16;;;21.76;100.00
66176;BME280;52977;44.816;20.538;2022-07-06T03:54:00;99794.03;;;21.79;100.00
66176;BME280;52977;44.816;20.538;2022-07-06T03:56:26;99794.03;;;21.58;100.00
66176;BME280;52977;44.816;20.538;2022-07-06T03:59:00;99797.59;;;21.65;100.00
66176;BME280;52977;44.816;20.538;2022-07-06T04:01:28;99805.91;;;21.65;100.00
66176;BME280;52977;44.816;20.538;2022-07-06T04:03:56;99796.00;;;21.75;100.00
66176;BME280;52977;44.816;20.538;2022-07-06T04:06:22;99792.81;;;21.70;100.00
66176;BME280;52977;44.816;20.538;2022-07-06T04:08:48;99792.47;;;21.78;100.00
66176;BME280;52977;44.816;20.538;2022-07-06T04:11:14;99788.88;;;21.78;100.00
66176;BME280;52977;44.816;20.538;2022-07-06T04:13:40;99787.28;;;21.73;100.00
66176;BME280;52977;44.816;20.538;2022-07-06T04:16:07;99784.09;;;21.64;100.00
66176;BME280;52977;44.816;20.538;2022-07-06T04:18:32;99783.72;;;21.73;100.00
66176;BME280;52977;44.816;20.538;2022-07-06T04:20:58;99803.56;;;21.60;100.00
66176;BME280;52977;44.816;20.538;2022-07-06T04:23:26;99788.06;;;21.59;100.00
66176;BME280;52977;44.816;20.538;2022-07-06T04:25:52;99779.34;;;21.64;100.00
66176;BME280;52977;44.816;20.538;2022-07-06T04:28:18;99794.00;;;21.54;100.00
66176;BME280;52977;44.816;20.538;2022-07-06T04:30:45;99782.09;;;21.57;100.00
66176;BME280;52977;44.816;20.538;2022-07-06T04:33:15;99792.44;;;21.60;100.00
66176;BME280;52977;44.816;20.538;2022-07-06T04:35:43;99795.22;;;21.75;100.00
66176;BME280;52977;44.816;20.538;2022-07-06T04:38:09;99778.16;;;21.69;100.00
66176;BME280;52977;44.816;20.538;2022-07-06T04:40:35;99788.47;;;21.79;100.00
66176;BME280;52977;44.816;20.538;2022-07-06T04:43:05;99793.63;;;21.81;100.00
66176;BME280;52977;44.816;20.538;2022-07-06T04:45:30;99793.25;;;21.72;100.00
66176;BME280;52977;44.816;20.538;2022-07-06T04:47:57;99773.75;;;21.46;100.00
66176;BME280;52977;44.816;20.538;2022-07-06T04:50:23;99778.88;;;21.44;100.00
66176;BME280;52977;44.816;20.538;2022-07-06T04:52:50;99792.44;;;21.60;100.00
66176;BME280;52977;44.816;20.538;2022-07-06T04:55:17;99793.63;;;21.66;100.00
66176;BME280;52977;44.816;20.538;2022-07-06T04:57:43;99796.41;;;21.59;100.00
66176;BME280;52977;44.816;20.538;2022-07-06T05:00:11;99794.00;;;21.61;100.00
66176;BME280;52977;44.816;20.538;2022-07-06T05:02:37;99800.38;;;21.55;100.00
66176;BME280;52977;44.816;20.538;2022-07-06T05:05:03;99778.88;;;21.44;100.00
66176;BME280;52977;44.816;20.538;2022-07-06T05:07:29;99782.47;;;21.48;100.00
66176;BME280;52977;44.816;20.538;2022-07-06T05:09:56;99799.09;;;21.38;100.00
66176;BME280;52977;44.816;20.538;2022-07-06T05:12:22;99796.72;;;21.36;100.00
66176;BME280;52977;44.816;20.538;2022-07-06T05:14:48;99784.44;;;21.41;100.00
66176;BME280;52977;44.816;20.538;2022-07-06T05:17:14;99797.53;;;21.44;100.00
66176;BME280;52977;44.816;20.538;2022-07-06T05:19:40;99814.56;;;21.39;100.00
66176;BME280;52977;44.816;20.538;2022-07-06T05:22:07;99810.22;;;21.38;100.00
66176;BME280;52977;44.816;20.538;2022-07-06T05:24:34;99819.34;;;21.42;100.00
66176;BME280;52977;44.816;20.538;2022-07-06T05:26:59;99808.66;;;21.51;100.00
66176;BME280;52977;44.816;20.538;2022-07-06T05:29:25;99805.84;;;21.29;100.00
66176;BME280;52977;44.816;20.538;2022-07-06T05:31:51;99809.81;;;21.28;100.00
66176;BME280;52977;44.816;20.538;2022-07-06T05:34:17;99801.84;;;21.23;100.00
66176;BME280;52977;44.816;20.538;2022-07-06T05:36:44;99805.06;;;21.32;100.00
66176;BME280;52977;44.816;20.538;2022-07-06T05:39:10;99807.50;;;21.52;100.00
66176;BME280;52977;44.816;20.538;2022-07-06T05:41:37;99790.00;;;21.37;100.00
66176;BME280;52977;44.816;20.538;2022-07-06T05:44:04;99810.66;;;21.50;100.00
66176;BME280;52977;44.816;20.538;2022-07-06T05:46:29;99807.06;;;21.39;100.00
66176;BME280;52977;44.816;20.538;2022-07-06T05:48:55;99805.03;;;21.29;100.00
66176;BME280;52977;44.816;20.538;2022-07-06T05:51:40;99783.59;;;21.22;100.00
66176;BME280;52977;44.816;20.538;2022-07-06T05:54:06;99801.09;;;21.37;100.00
66176;BME280;52977;44.816;20.538;2022-07-06T05:56:32;99789.66;;;21.53;100.00
66176;BME280;52977;44.816;20.538;2022-07-06T05:58:59;99808.72;;;21.69;100.00
66176;BME280;52977;44.816;20.538;2022-07-06T06:01:25;99808.31;;;21.63;100.00
66176;BME280;52977;44.816;20.538;2022-07-06T06:04:01;99812.28;;;21.62;100.00
66176;BME280;52977;44.816;20.538;2022-07-06T06:06:27;99818.16;;;21.50;100.00
66176;BME280;52977;44.816;20.538;2022-07-06T06:08:53;99820.22;;;21.60;100.00
66176;BME280;52977;44.816;20.538;2022-07-06T06:11:19;99808.31;;;21.56;100.00
66176;BME280;52977;44.816;20.538;2022-07-06T06:13:44;99812.28;;;21.77;100.00
66176;BME280;52977;44.816;20.538;2022-07-06T06:16:10;99808.31;;;21.85;100.00
66176;BME280;52977;44.816;20.538;2022-07-06T06:18:36;99817.06;;;22.01;100.00
66176;BME280;52977;44.816;20.538;2022-07-06T06:21:02;99806.72;;;21.95;100.00
66176;BME280;52977;44.816;20.538;2022-07-06T06:23:27;99803.16;;;21.83;100.00
66176;BME280;52977;44.816;20.538;2022-07-06T06:25:53;99812.69;;;21.86;100.00
66176;BME280;52977;44.816;20.538;2022-07-06T06:28:18;99799.19;;;21.77;100.00
66176;BME280;52977;44.816;20.538;2022-07-06T06:30:44;99811.50;;;21.87;100.00
66176;BME280;52977;44.816;20.538;2022-07-06T06:33:15;99818.25;;;21.97;100.00
66176;BME280;52977;44.816;20.538;2022-07-06T06:35:44;99808.69;;;22.19;100.00
66176;BME280;52977;44.816;20.538;2022-07-06T06:38:09;99818.63;;;22.24;100.00
66176;BME280;52977;44.816;20.538;2022-07-06T06:40:35;99805.94;;;22.01;100.00
66176;BME280;52977;44.816;20.538;2022-07-06T06:43:01;99800.38;;;22.09;100.00
66176;BME280;52977;44.816;20.538;2022-07-06T06:45:28;99805.13;;;22.19;100.00
66176;BME280;52977;44.816;20.538;2022-07-06T06:47:54;99798.78;;;22.11;100.00
66176;BME280;52977;44.816;20.538;2022-07-06T06:50:19;99805.94;;;22.23;100.00
66176;BME280;52977;44.816;20.538;2022-07-06T06:52:46;99795.22;;;22.36;100.00
66176;BME280;52977;44.816;20.538;2022-07-06T06:55:12;99801.91;;;22.53;100.00
66176;BME280;52977;44.816;20.538;2022-07-06T06:57:37;99789.59;;;22.65;99.35
66176;BME280;52977;44.816;20.538;2022-07-06T07:00:04;99782.03;;;22.55;99.07
66176;BME280;52977;44.816;20.538;2022-07-06T07:02:30;99793.59;;;22.42;99.10
66176;BME280;52977;44.816;20.538;2022-07-06T07:04:56;99797.19;;;22.43;99.79
66176;BME280;52977;44.816;20.538;2022-07-06T07:07:21;99790.38;;;22.69;97.58
66176;BME280;52977;44.816;20.538;2022-07-06T07:09:47;99793.94;;;22.73;96.78
66176;BME280;52977;44.816;20.538;2022-07-06T07:12:12;99793.22;;;22.40;99.13
66176;BME280;52977;44.816;20.538;2022-07-06T07:14:40;99785.28;;;22.35;100.00
66176;BME280;52977;44.816;20.538;2022-07-06T07:17:06;99798.78;;;22.33;100.00
66176;BME280;52977;44.816;20.538;2022-07-06T07:19:32;99793.63;;;22.39;100.00
66176;BME280;52977;44.816;20.538;2022-07-06T07:21:57;99791.63;;;22.43;100.00
66176;BME280;52977;44.816;20.538;2022-07-06T07:24:23;99795.16;;;22.54;100.00
66176;BME280;52977;44.816;20.538;2022-07-06T07:26:49;99786.38;;;22.74;97.86
66176;BME280;52977;44.816;20.538;2022-07-06T07:29:14;99781.25;;;22.54;99.30
66176;BME280;52977;44.816;20.538;2022-07-06T07:31:41;99777.22;;;22.73;97.06
66176;BME280;52977;44.816;20.538;2022-07-06T07:34:06;99754.19;;;22.62;96.28
66176;BME280;52977;44.816;20.538;2022-07-06T07:36:32;99791.53;;;22.79;97.51
66176;BME280;52977;44.816;20.538;2022-07-06T07:38:57;99794.78;;;22.48;100.00
66176;BME280;52977;44.816;20.538;2022-07-06T07:41:23;99794.31;;;22.72;98.38
66176;BME280;52977;44.816;20.538;2022-07-06T07:43:49;99806.22;;;22.79;99.69
66176;BME280;52977;44.816;20.538;2022-07-06T07:46:14;99804.22;;;22.83;96.13
66176;BME280;52977;44.816;20.538;2022-07-06T07:48:40;99813.84;;;22.46;97.58
66176;BME280;52977;44.816;20.538;2022-07-06T07:51:06;99805.50;;;22.46;98.86
66176;BME280;52977;44.816;20.538;2022-07-06T07:53:31;99812.25;;;22.60;97.51
66176;BME280;52977;44.816;20.538;2022-07-06T07:55:57;99814.63;;;22.54;99.04
66176;BME280;52977;44.816;20.538;2022-07-06T07:58:22;99818.16;;;22.73;98.31
66176;BME280;52977;44.816;20.538;2022-07-06T08:00:49;99819.72;;;22.81;100.00
66176;BME280;52977;44.816;20.538;2022-07-06T08:03:14;99812.91;;;22.96;96.53
66176;BME280;52977;44.816;20.538;2022-07-06T08:05:40;99813.28;;;23.06;94.68
66176;BME280;52977;44.816;20.538;2022-07-06T08:08:09;99794.28;;;22.86;93.97
66176;BME280;52977;44.816;20.538;2022-07-06T08:10:34;99820.81;;;23.12;93.44
66176;BME280;52977;44.816;20.538;2022-07-06T08:13:00;99818.41;;;23.14;94.85
66176;BME280;52977;44.816;20.538;2022-07-06T08:15:25;99823.19;;;23.10;94.87
66176;BME280;52977;44.816;20.538;2022-07-06T08:17:52;99829.94;;;23.09;94.89
66176;BME280;52977;44.816;20.538;2022-07-06T08:20:17;99807.28;;;23.14;93.21
66176;BME280;52977;44.816;20.538;2022-07-06T08:22:43;99817.56;;;23.25;94.50
66176;BME280;52977;44.816;20.538;2022-07-06T08:25:09;99816.09;;;22.91;95.37
66176;BME280;52977;44.816;20.538;2022-07-06T08:27:35;99819.19;;;23.18;95.50
66176;BME280;52977;44.816;20.538;2022-07-06T08:30:02;99820.03;;;23.08;95.92
66176;BME280;52977;44.816;20.538;2022-07-06T08:32:28;99825.63;;;22.94;97.67
66176;BME280;52977;44.816;20.538;2022-07-06T08:34:53;99828.84;;;22.89;96.72
66176;BME280;52977;44.816;20.538;2022-07-06T08:37:19;99835.91;;;23.15;94.94
66176;BME280;52977;44.816;20.538;2022-07-06T08:39:45;99809.56;;;23.30;91.33
66176;BME280;52977;44.816;20.538;2022-07-06T08:42:11;99825.34;;;23.55;91.61
66176;BME280;52977;44.816;20.538;2022-07-06T08:44:38;99817.75;;;23.63;90.20
66176;BME280;52977;44.816;20.538;2022-07-06T08:47:05;99815.50;;;23.43;89.65
66176;BME280;52977;44.816;20.538;2022-07-06T08:49:34;99803.56;;;23.39;90.86
66176;BME280;52977;44.816;20.538;2022-07-06T08:52:03;99838.06;;;23.60;91.04
66176;BME280;52977;44.816;20.538;2022-07-06T08:54:29;99824.09;;;23.63;90.84
66176;BME280;52977;44.816;20.538;2022-07-06T08:56:54;99826.69;;;23.29;90.80
66176;BME280;52977;44.816;20.538;2022-07-06T08:59:20;99830.72;;;23.20;93.14
66176;BME280;52977;44.816;20.538;2022-07-06T09:01:46;99829.94;;;23.20;93.75
66176;BME280;52977;44.816;20.538;2022-07-06T09:04:21;99809.19;;;23.32;94.57
66176;BME280;52977;44.816;20.538;2022-07-06T09:06:47;99831.31;;;23.53;92.30
66176;BME280;52977;44.816;20.538;2022-07-06T09:09:19;99837.25;;;23.59;93.36
66176;BME280;52977;44.816;20.538;2022-07-06T09:11:46;99824.97;;;23.53;92.63
66176;BME280;52977;44.816;20.538;2022-07-06T09:14:11;99818.63;;;23.49;92.80
66176;BME280;52977;44.816;20.538;2022-07-06T09:16:37;99803.00;;;23.66;91.19
66176;BME280;52977;44.816;20.538;2022-07-06T09:19:02;99806.63;;;23.59;91.84
66176;BME280;52977;44.816;20.538;2022-07-06T09:21:30;99823.72;;;23.61;93.24
66176;BME280;52977;44.816;20.538;2022-07-06T09:23:59;99824.94;;;23.60;94.08
66176;BME280;52977;44.816;20.538;2022-07-06T09:26:26;99824.94;;;23.60;93.78
66176;BME280;52977;44.816;20.538;2022-07-06T09:28:52;99815.28;;;23.72;90.42
66176;BME280;52977;44.816;20.538;2022-07-06T09:31:19;99815.25;;;23.79;90.67
66176;BME280;52977;44.816;20.538;2022-07-06T09:34:03;99820.78;;;23.83;90.91
66176;BME280;52977;44.816;20.538;2022-07-06T09:41:55;99814.84;;;24.26;89.47
66176;BME280;52977;44.816;20.538;2022-07-06T09:44:26;99817.66;;;24.26;87.37
66176;BME280;52977;44.816;20.538;2022-07-06T09:46:53;99813.25;;;24.29;88.64
66176;BME280;52977;44.816;20.538;2022-07-06T09:49:21;99806.91;;;24.25;88.02
66176;BME280;52977;44.816;20.538;2022-07-06T09:51:48;99818.84;;;24.25;86.85
66176;BME280;52977;44.816;20.538;2022-07-06T09:54:15;99812.03;;;24.30;85.53
66176;BME280;52977;44.816;20.538;2022-07-06T09:56:43;99820.69;;;24.43;85.15
66176;BME280;52977;44.816;20.538;2022-07-06T09:59:13;99818.25;;;24.45;84.85
66176;BME280;52977;44.816;20.538;2022-07-06T10:01:40;99824.91;;;24.58;82.29
66176;BME280;52977;44.816;20.538;2022-07-06T10:04:07;99835.72;;;24.52;81.83
66176;BME280;52977;44.816;20.538;2022-07-06T10:06:33;99822.59;;;24.49;83.33
66176;BME280;52977;44.816;20.538;2022-07-06T10:09:00;99803.97;;;24.39;82.07
66176;BME280;52977;44.816;20.538;2022-07-06T10:11:28;99820.91;;;24.59;81.03
66176;BME280;52977;44.816;20.538;2022-07-06T10:13:57;99826.09;;;24.57;79.41
66176;BME280;52977;44.816;20.538;2022-07-06T10:16:24;99836.13;;;24.51;80.85
66176;BME280;52977;44.816;20.538;2022-07-06T10:18:51;99826.50;;;24.55;80.37
66176;BME280;52977;44.816;20.538;2022-07-06T10:21:21;99821.53;;;24.78;80.07
66176;BME280;52977;44.816;20.538;2022-07-06T10:23:49;99798.50;;;24.70;80.30
66176;BME280;52977;44.816;20.538;2022-07-06T10:26:16;99824.84;;;24.65;80.73
66176;BME280;52977;44.816;20.538;2022-07-06T10:28:50;99819.59;;;24.71;80.11
66176;BME280;52977;44.816;20.538;2022-07-06T10:31:16;99826.59;;;24.86;78.77
66176;BME280;52977;44.816;20.538;2022-07-06T10:33:43;99812.84;;;24.68;78.01
66176;BME280;52977;44.816;20.538;2022-07-06T10:36:10;99811.38;;;24.56;77.91
66176;BME280;52977;44.816;20.538;2022-07-06T10:38:36;99806.19;;;24.55;79.78
66176;BME280;52977;44.816;20.538;2022-07-06T10:41:06;99803.91;;;24.46;80.42
66176;BME280;52977;44.816;20.538;2022-07-06T10:43:34;99810.69;;;24.45;80.79
66176;BME280;52977;44.816;20.538;2022-07-06T10:46:05;99811.88;;;24.44;80.68
66176;BME280;52977;44.816;20.538;2022-07-06T10:48:36;99815.84;;;24.47;79.93
66176;BME280;52977;44.816;20.538;2022-07-06T10:51:02;99818.50;;;24.61;80.90
66176;BME280;52977;44.816;20.538;2022-07-06T10:53:34;99814.88;;;24.64;80.97
66176;BME280;52977;44.816;20.538;2022-07-06T10:56:09;99814.56;;;24.55;77.54
66176;BME280;52977;44.816;20.538;2022-07-06T10:58:51;99819.34;;;24.54;78.61
66176;BME280;52977;44.816;20.538;2022-07-06T11:01:18;99818.56;;;24.54;78.82
66176;BME280;52977;44.816;20.538;2022-07-06T11:06:24;99817.63;;;24.30;76.75
66176;BME280;52977;44.816;20.538;2022-07-06T11:14:15;99817.66;;;24.68;75.83
66176;BME280;52977;44.816;20.538;2022-07-06T11:19:17;99816.09;;;24.60;75.34
66176;BME280;52977;44.816;20.538;2022-07-06T11:21:51;99819.47;;;24.82;76.15
66176;BME280;52977;44.816;20.538;2022-07-06T11:24:24;99806.84;;;25.04;72.15
66176;BME280;52977;44.816;20.538;2022-07-06T11:26:51;99809.91;;;25.14;73.22
66176;BME280;52977;44.816;20.538;2022-07-06T11:29:19;99813.44;;;25.18;73.53
66176;BME280;52977;44.816;20.538;2022-07-06T11:31:49;99819.13;;;25.11;72.40
66176;BME280;52977;44.816;20.538;2022-07-06T11:36:45;99797.53;;;25.15;70.03
66176;BME280;52977;44.816;20.538;2022-07-06T11:39:10;99805.53;;;25.13;70.36
66176;BME280;52977;44.816;20.538;2022-07-06T11:41:37;99799.44;;;24.90;71.32
66176;BME280;52977;44.816;20.538;2022-07-06T11:44:03;99797.88;;;24.89;72.14
66176;BME280;52977;44.816;20.538;2022-07-06T11:46:31;99799.28;;;25.01;71.95
66176;BME280;52977;44.816;20.538;2022-07-06T11:48:59;99813.34;;;25.25;73.16
66176;BME280;52977;44.816;20.538;2022-07-06T11:51:27;99801.41;;;25.52;72.87
66176;BME280;52977;44.816;20.538;2022-07-06T11:53:59;99780.22;;;25.54;70.60
66176;BME280;52977;44.816;20.538;2022-07-06T11:56:26;99805.34;;;25.27;70.27
66176;BME280;52977;44.816;20.538;2022-07-06T11:58:59;99791.25;;;24.76;73.24
66176;BME280;52977;44.816;20.538;2022-07-06T12:01:27;99792.53;;;24.68;73.63
66176;BME280;52977;44.816;20.538;2022-07-06T12:03:57;99796.97;;;24.96;73.58
66176;BME280;52977;44.816;20.538;2022-07-06T12:06:25;99789.97;;;25.12;71.05
66176;BME280;52977;44.816;20.538;2022-07-06T12:08:53;99801.31;;;25.28;71.30
66176;BME280;52977;44.816;20.538;2022-07-06T12:11:27;99786.25;;;25.22;69.21
66176;BME280;52977;44.816;20.538;2022-07-06T12:13:55;99801.69;;;25.34;71.37
66176;BME280;52977;44.816;20.538;2022-07-06T12:16:29;99791.84;;;25.22;71.72
66176;BME280;52977;44.816;20.538;2022-07-06T12:18:55;99786.25;;;25.22;69.44
66176;BME280;52977;44.816;20.538;2022-07-06T12:21:21;99789.19;;;25.42;69.96
66176;BME280;52977;44.816;20.538;2022-07-06T12:23:51;99790.34;;;25.45;68.50
66176;BME280;52977;44.816;20.538;2022-07-06T12:26:18;99786.28;;;25.49;69.10
66176;BME280;52977;44.816;20.538;2022-07-06T12:28:45;99786.91;;;25.61;68.17
66176;BME280;52977;44.816;20.538;2022-07-06T12:31:11;99769.06;;;25.78;70.23
66176;BME280;52977;44.816;20.538;2022-07-06T12:33:56;99769.13;;;26.22;67.57
66176;BME280;52977;44.816;20.538;2022-07-06T12:36:22;99760.91;;;26.55;67.30
66176;BME280;52977;44.816;20.538;2022-07-06T12:38:48;99750.09;;;26.57;66.80
66176;BME280;52977;44.816;20.538;2022-07-06T12:41:32;99768.81;;;26.60;68.23
66176;BME280;52977;44.816;20.538;2022-07-06T12:44:03;99768.19;;;26.72;67.65
66176;BME280;52977;44.816;20.538;2022-07-06T12:46:32;99767.88;;;26.67;64.02
66176;BME280;52977;44.816;20.538;2022-07-06T12:48:59;99773.53;;;26.63;64.46
66176;BME280;52977;44.816;20.538;2022-07-06T12:51:25;99773.97;;;26.82;63.10
66176;BME280;52977;44.816;20.538;2022-07-06T12:53:51;99761.34;;;26.53;63.49
66176;BME280;52977;44.816;20.538;2022-07-06T12:56:17;99783.28;;;26.35;63.47
66176;BME280;52977;44.816;20.538;2022-07-06T12:58:59;99762.75;;;26.21;63.42
66176;BME280;52977;44.816;20.538;2022-07-06T13:01:25;99762.59;;;26.29;63.24
66176;BME280;52977;44.816;20.538;2022-07-06T13:03:55;99763.44;;;26.05;65.01